Terminal Aerodrome Forecast
Issued by NWS

Home | Current Version | Previous Version | Graphics & Text | Print | Product List | Glossary On
Versions: 1 2 3 4 5 6 7 8 9 10 11 12 13 14 15 16
000
FTUS43 KICT 201100
TAFCNU
TAF
KCNU 201136Z 2012/2112 20007KT P6SM BKN050
     FM201400 26005KT P6SM SCT070
     FM201700 02007KT P6SM SCT060
     FM202000 04011KT P6SM SKC
     FM210000 03005KT P6SM SKC=

USA.gov is the U.S. government's official web portal to all federal, state and local government web resources and services.